sensor_id;sensor_type;location;lat;lon;timestamp;P1;durP1;ratioP1;P2;durP2;ratioP2
58553;SDS011;48119;53.218;6.576;2024-01-15T00:02:09;8.95;;;2.63;;
58553;SDS011;48119;53.218;6.576;2024-01-15T00:04:40;10.05;;;2.50;;
58553;SDS011;48119;53.218;6.576;2024-01-15T00:07:06;8.80;;;2.55;;
58553;SDS011;48119;53.218;6.576;2024-01-15T00:09:32;12.50;;;2.22;;
58553;SDS011;48119;53.218;6.576;2024-01-15T00:11:59;10.55;;;2.28;;
58553;SDS011;48119;53.218;6.576;2024-01-15T00:14:25;7.68;;;2.67;;
58553;SDS011;48119;53.218;6.576;2024-01-15T00:16:53;4.45;;;1.60;;
58553;SDS011;48119;53.218;6.576;2024-01-15T00:19:21;5.72;;;1.25;;
58553;SDS011;48119;53.218;6.576;2024-01-15T00:21:48;5.30;;;1.40;;
58553;SDS011;48119;53.218;6.576;2024-01-15T00:24:17;4.90;;;1.13;;
58553;SDS011;48119;53.218;6.576;2024-01-15T00:26:43;4.75;;;1.48;;
58553;SDS011;48119;53.218;6.576;2024-01-15T00:29:11;3.78;;;1.50;;
58553;SDS011;48119;53.218;6.576;2024-01-15T00:31:37;3.55;;;1.00;;
58553;SDS011;48119;53.218;6.576;2024-01-15T00:34:03;6.00;;;1.48;;
58553;SDS011;48119;53.218;6.576;2024-01-15T00:36:31;6.15;;;1.33;;
58553;SDS011;48119;53.218;6.576;2024-01-15T00:38:57;4.75;;;1.55;;
58553;SDS011;48119;53.218;6.576;2024-01-15T00:41:25;9.90;;;1.95;;
58553;SDS011;48119;53.218;6.576;2024-01-15T00:43:55;7.03;;;1.95;;
58553;SDS011;48119;53.218;6.576;2024-01-15T00:46:38;6.00;;;1.48;;
58553;SDS011;48119;53.218;6.576;2024-01-15T00:49:36;8.50;;;1.85;;
58553;SDS011;48119;53.218;6.576;2024-01-15T00:52:10;6.50;;;1.63;;
58553;SDS011;48119;53.218;6.576;2024-01-15T00:54:51;9.05;;;1.60;;
58553;SDS011;48119;53.218;6.576;2024-01-15T01:01:39;5.80;;;1.40;;
58553;SDS011;48119;53.218;6.576;2024-01-15T01:04:08;11.00;;;2.15;;
58553;SDS011;48119;53.218;6.576;2024-01-15T01:06:34;11.43;;;2.47;;
58553;SDS011;48119;53.218;6.576;2024-01-15T01:09:00;7.95;;;2.30;;
58553;SDS011;48119;53.218;6.576;2024-01-15T01:11:26;8.48;;;2.17;;
58553;SDS011;48119;53.218;6.576;2024-01-15T01:13:52;13.73;;;3.00;;
58553;SDS011;48119;53.218;6.576;2024-01-15T01:16:17;7.68;;;2.30;;
58553;SDS011;48119;53.218;6.576;2024-01-15T01:18:43;10.55;;;2.47;;
58553;SDS011;48119;53.218;6.576;2024-01-15T01:21:09;16.00;;;2.67;;
58553;SDS011;48119;53.218;6.576;2024-01-15T01:23:35;11.15;;;3.08;;
58553;SDS011;48119;53.218;6.576;2024-01-15T01:26:03;10.90;;;3.05;;
58553;SDS011;48119;53.218;6.576;2024-01-15T01:28:29;11.45;;;3.65;;
58553;SDS011;48119;53.218;6.576;2024-01-15T01:30:55;15.68;;;2.67;;
58553;SDS011;48119;53.218;6.576;2024-01-15T01:33:20;10.57;;;3.17;;
58553;SDS011;48119;53.218;6.576;2024-01-15T01:35:46;10.68;;;2.25;;
58553;SDS011;48119;53.218;6.576;2024-01-15T01:38:15;8.38;;;2.42;;
58553;SDS011;48119;53.218;6.576;2024-01-15T01:40:41;10.27;;;3.10;;
58553;SDS011;48119;53.218;6.576;2024-01-15T01:43:08;11.77;;;2.58;;
58553;SDS011;48119;53.218;6.576;2024-01-15T01:45:34;11.25;;;3.03;;
58553;SDS011;48119;53.218;6.576;2024-01-15T01:48:00;7.93;;;3.30;;
58553;SDS011;48119;53.218;6.576;2024-01-15T01:50:27;10.13;;;2.70;;
58553;SDS011;48119;53.218;6.576;2024-01-15T01:52:55;12.52;;;3.28;;
58553;SDS011;48119;53.218;6.576;2024-01-15T01:55:24;10.15;;;1.95;;
58553;SDS011;48119;53.218;6.576;2024-01-15T01:57:57;12.15;;;2.53;;
58553;SDS011;48119;53.218;6.576;2024-01-15T02:00:23;7.30;;;2.53;;
58553;SDS011;48119;53.218;6.576;2024-01-15T02:02:49;15.40;;;3.08;;
58553;SDS011;48119;53.218;6.576;2024-01-15T02:05:17;8.13;;;2.00;;
58553;SDS011;48119;53.218;6.576;2024-01-15T02:07:44;14.23;;;2.83;;
58553;SDS011;48119;53.218;6.576;2024-01-15T02:10:13;9.90;;;3.03;;
58553;SDS011;48119;53.218;6.576;2024-01-15T02:12:39;11.35;;;2.60;;
58553;SDS011;48119;53.218;6.576;2024-01-15T02:15:10;15.18;;;3.15;;
58553;SDS011;48119;53.218;6.576;2024-01-15T02:17:55;13.13;;;3.30;;
58553;SDS011;48119;53.218;6.576;2024-01-15T02:20:22;8.95;;;2.65;;
58553;SDS011;48119;53.218;6.576;2024-01-15T02:22:48;15.95;;;2.80;;
58553;SDS011;48119;53.218;6.576;2024-01-15T02:25:14;12.15;;;2.85;;
58553;SDS011;48119;53.218;6.576;2024-01-15T02:27:40;12.10;;;2.45;;
58553;SDS011;48119;53.218;6.576;2024-01-15T02:30:07;12.15;;;2.65;;
58553;SDS011;48119;53.218;6.576;2024-01-15T02:32:35;10.70;;;2.42;;
58553;SDS011;48119;53.218;6.576;2024-01-15T02:35:00;13.55;;;2.55;;
58553;SDS011;48119;53.218;6.576;2024-01-15T02:37:26;15.30;;;3.17;;
58553;SDS011;48119;53.218;6.576;2024-01-15T02:39:52;6.88;;;2.40;;
58553;SDS011;48119;53.218;6.576;2024-01-15T02:42:17;11.02;;;2.45;;
58553;SDS011;48119;53.218;6.576;2024-01-15T02:44:43;11.00;;;2.88;;
58553;SDS011;48119;53.218;6.576;2024-01-15T02:47:09;15.40;;;2.80;;
58553;SDS011;48119;53.218;6.576;2024-01-15T02:49:35;11.73;;;1.90;;
58553;SDS011;48119;53.218;6.576;2024-01-15T02:52:00;8.77;;;2.17;;
58553;SDS011;48119;53.218;6.576;2024-01-15T02:54:26;9.35;;;2.45;;
58553;SDS011;48119;53.218;6.576;2024-01-15T02:56:52;12.20;;;2.60;;
58553;SDS011;48119;53.218;6.576;2024-01-15T02:59:18;11.25;;;2.08;;
58553;SDS011;48119;53.218;6.576;2024-01-15T03:01:43;7.97;;;2.10;;
58553;SDS011;48119;53.218;6.576;2024-01-15T03:04:09;15.18;;;2.60;;
58553;SDS011;48119;53.218;6.576;2024-01-15T03:06:35;4.15;;;1.52;;
58553;SDS011;48119;53.218;6.576;2024-01-15T03:09:00;11.30;;;2.78;;
58553;SDS011;48119;53.218;6.576;2024-01-15T03:11:26;6.53;;;1.50;;
58553;SDS011;48119;53.218;6.576;2024-01-15T03:13:52;6.28;;;1.73;;
58553;SDS011;48119;53.218;6.576;2024-01-15T03:16:18;24.27;;;2.15;;
58553;SDS011;48119;53.218;6.576;2024-01-15T03:18:45;9.35;;;1.65;;
58553;SDS011;48119;53.218;6.576;2024-01-15T03:21:13;6.43;;;2.17;;
58553;SDS011;48119;53.218;6.576;2024-01-15T03:23:38;8.20;;;2.13;;
58553;SDS011;48119;53.218;6.576;2024-01-15T03:26:04;13.65;;;2.50;;
58553;SDS011;48119;53.218;6.576;2024-01-15T03:28:30;8.75;;;1.92;;
58553;SDS011;48119;53.218;6.576;2024-01-15T03:30:56;11.10;;;3.67;;
58553;SDS011;48119;53.218;6.576;2024-01-15T03:33:22;13.57;;;2.97;;
58553;SDS011;48119;53.218;6.576;2024-01-15T03:35:47;9.25;;;2.47;;
58553;SDS011;48119;53.218;6.576;2024-01-15T03:38:16;9.63;;;2.80;;
58553;SDS011;48119;53.218;6.576;2024-01-15T03:40:42;13.77;;;3.05;;
58553;SDS011;48119;53.218;6.576;2024-01-15T03:43:08;10.95;;;3.03;;
58553;SDS011;48119;53.218;6.576;2024-01-15T03:45:34;16.35;;;3.22;;
58553;SDS011;48119;53.218;6.576;2024-01-15T03:48:01;11.15;;;3.38;;
58553;SDS011;48119;53.218;6.576;2024-01-15T03:50:35;26.73;;;5.88;;
58553;SDS011;48119;53.218;6.576;2024-01-15T03:53:00;13.88;;;2.80;;
58553;SDS011;48119;53.218;6.576;2024-01-15T03:55:26;17.38;;;3.20;;
58553;SDS011;48119;53.218;6.576;2024-01-15T03:57:55;9.60;;;3.05;;
58553;SDS011;48119;53.218;6.576;2024-01-15T04:00:21;9.63;;;2.90;;
58553;SDS011;48119;53.218;6.576;2024-01-15T04:02:47;9.48;;;2.60;;
58553;SDS011;48119;53.218;6.576;2024-01-15T04:05:16;12.32;;;2.50;;
58553;SDS011;48119;53.218;6.576;2024-01-15T04:07:42;21.75;;;4.57;;
58553;SDS011;48119;53.218;6.576;2024-01-15T04:10:07;10.98;;;2.75;;
58553;SDS011;48119;53.218;6.576;2024-01-15T04:12:34;7.57;;;2.47;;
58553;SDS011;48119;53.218;6.576;2024-01-15T04:15:03;11.05;;;2.60;;
58553;SDS011;48119;53.218;6.576;2024-01-15T04:17:32;11.13;;;2.10;;
58553;SDS011;48119;53.218;6.576;2024-01-15T04:20:01;7.15;;;2.75;;
58553;SDS011;48119;53.218;6.576;2024-01-15T04:22:26;8.50;;;2.10;;
58553;SDS011;48119;53.218;6.576;2024-01-15T04:24:52;11.50;;;2.03;;
58553;SDS011;48119;53.218;6.576;2024-01-15T04:27:18;10.75;;;2.53;;
58553;SDS011;48119;53.218;6.576;2024-01-15T04:29:44;9.25;;;2.03;;
58553;SDS011;48119;53.218;6.576;2024-01-15T04:32:10;12.77;;;2.83;;
58553;SDS011;48119;53.218;6.576;2024-01-15T04:34:37;7.65;;;1.98;;
58553;SDS011;48119;53.218;6.576;2024-01-15T04:37:03;7.15;;;1.25;;
58553;SDS011;48119;53.218;6.576;2024-01-15T04:39:31;8.63;;;1.70;;
58553;SDS011;48119;53.218;6.576;2024-01-15T04:41:57;8.20;;;1.58;;
58553;SDS011;48119;53.218;6.576;2024-01-15T04:44:23;8.30;;;1.17;;
58553;SDS011;48119;53.218;6.576;2024-01-15T04:46:49;4.68;;;1.35;;
58553;SDS011;48119;53.218;6.576;2024-01-15T05:11:31;5.82;;;1.65;;
58553;SDS011;48119;53.218;6.576;2024-01-15T05:14:16;8.63;;;1.83;;
58553;SDS011;48119;53.218;6.576;2024-01-15T05:16:48;9.82;;;1.92;;
58553;SDS011;48119;53.218;6.576;2024-01-15T05:19:14;7.75;;;1.88;;
58553;SDS011;48119;53.218;6.576;2024-01-15T05:21:40;5.32;;;1.65;;
58553;SDS011;48119;53.218;6.576;2024-01-15T05:24:07;7.88;;;1.60;;
58553;SDS011;48119;53.218;6.576;2024-01-15T05:26:33;7.18;;;2.03;;
58553;SDS011;48119;53.218;6.576;2024-01-15T05:28:59;9.57;;;1.65;;
58553;SDS011;48119;53.218;6.576;2024-01-15T05:31:25;6.50;;;1.70;;
58553;SDS011;48119;53.218;6.576;2024-01-15T05:33:51;6.28;;;1.73;;
58553;SDS011;48119;53.218;6.576;2024-01-15T05:36:17;5.15;;;1.33;;
58553;SDS011;48119;53.218;6.576;2024-01-15T05:38:42;13.45;;;1.73;;
58553;SDS011;48119;53.218;6.576;2024-01-15T05:41:08;9.95;;;1.73;;
58553;SDS011;48119;53.218;6.576;2024-01-15T05:43:34;6.82;;;2.00;;
58553;SDS011;48119;53.218;6.576;2024-01-15T05:45:59;6.65;;;1.70;;
58553;SDS011;48119;53.218;6.576;2024-01-15T05:48:25;9.50;;;1.80;;
58553;SDS011;48119;53.218;6.576;2024-01-15T05:50:51;10.60;;;1.95;;
58553;SDS011;48119;53.218;6.576;2024-01-15T05:53:16;11.73;;;2.70;;
58553;SDS011;48119;53.218;6.576;2024-01-15T05:55:42;11.07;;;2.25;;
58553;SDS011;48119;53.218;6.576;2024-01-15T05:58:08;12.25;;;2.45;;
58553;SDS011;48119;53.218;6.576;2024-01-15T06:00:33;10.10;;;2.80;;
58553;SDS011;48119;53.218;6.576;2024-01-15T06:03:01;12.00;;;2.67;;
58553;SDS011;48119;53.218;6.576;2024-01-15T06:05:27;10.00;;;2.92;;
58553;SDS011;48119;53.218;6.576;2024-01-15T06:07:53;9.60;;;2.75;;
58553;SDS011;48119;53.218;6.576;2024-01-15T06:10:19;13.98;;;3.70;;
58553;SDS011;48119;53.218;6.576;2024-01-15T06:12:44;8.70;;;2.97;;
58553;SDS011;48119;53.218;6.576;2024-01-15T06:15:10;10.48;;;2.75;;
58553;SDS011;48119;53.218;6.576;2024-01-15T06:17:37;12.60;;;2.97;;
58553;SDS011;48119;53.218;6.576;2024-01-15T06:20:02;7.93;;;2.97;;
58553;SDS011;48119;53.218;6.576;2024-01-15T06:22:29;10.07;;;2.60;;
58553;SDS011;48119;53.218;6.576;2024-01-15T06:24:55;12.43;;;3.67;;
58553;SDS011;48119;53.218;6.576;2024-01-15T06:27:21;18.75;;;3.13;;
58553;SDS011;48119;53.218;6.576;2024-01-15T06:29:47;7.93;;;2.95;;
58553;SDS011;48119;53.218;6.576;2024-01-15T06:32:13;18.63;;;3.85;;
58553;SDS011;48119;53.218;6.576;2024-01-15T06:34:39;12.02;;;3.03;;
58553;SDS011;48119;53.218;6.576;2024-01-15T06:37:05;12.65;;;2.40;;
58553;SDS011;48119;53.218;6.576;2024-01-15T06:39:31;12.75;;;3.53;;
58553;SDS011;48119;53.218;6.576;2024-01-15T06:41:57;15.85;;;3.10;;
58553;SDS011;48119;53.218;6.576;2024-01-15T06:44:23;11.75;;;2.35;;
58553;SDS011;48119;53.218;6.576;2024-01-15T06:46:48;7.28;;;2.40;;
58553;SDS011;48119;53.218;6.576;2024-01-15T06:49:14;12.20;;;3.35;;
58553;SDS011;48119;53.218;6.576;2024-01-15T06:51:40;18.63;;;4.03;;
58553;SDS011;48119;53.218;6.576;2024-01-15T06:54:06;16.48;;;3.38;;
58553;SDS011;48119;53.218;6.576;2024-01-15T06:56:32;9.68;;;2.50;;
58553;SDS011;48119;53.218;6.576;2024-01-15T06:58:58;10.45;;;2.90;;
58553;SDS011;48119;53.218;6.576;2024-01-15T07:01:24;8.23;;;1.88;;
58553;SDS011;48119;53.218;6.576;2024-01-15T07:03:51;9.25;;;2.33;;
58553;SDS011;48119;53.218;6.576;2024-01-15T07:06:16;13.20;;;3.58;;
58553;SDS011;48119;53.218;6.576;2024-01-15T07:08:42;15.23;;;3.00;;
58553;SDS011;48119;53.218;6.576;2024-01-15T07:11:08;8.10;;;2.42;;
58553;SDS011;48119;53.218;6.576;2024-01-15T07:13:35;6.55;;;1.88;;
58553;SDS011;48119;53.218;6.576;2024-01-15T07:16:02;7.47;;;1.90;;
58553;SDS011;48119;53.218;6.576;2024-01-15T07:18:27;8.07;;;2.05;;
58553;SDS011;48119;53.218;6.576;2024-01-15T07:20:53;6.60;;;1.38;;
58553;SDS011;48119;53.218;6.576;2024-01-15T07:23:19;10.20;;;2.70;;
58553;SDS011;48119;53.218;6.576;2024-01-15T07:25:45;7.63;;;1.80;;
58553;SDS011;48119;53.218;6.576;2024-01-15T07:28:11;6.72;;;1.67;;
58553;SDS011;48119;53.218;6.576;2024-01-15T07:30:36;6.15;;;1.80;;
58553;SDS011;48119;53.218;6.576;2024-01-15T07:33:05;7.25;;;2.60;;
58553;SDS011;48119;53.218;6.576;2024-01-15T07:35:31;11.88;;;2.90;;
58553;SDS011;48119;53.218;6.576;2024-01-15T07:37:57;7.10;;;1.80;;
58553;SDS011;48119;53.218;6.576;2024-01-15T07:40:23;8.63;;;2.38;;
58553;SDS011;48119;53.218;6.576;2024-01-15T07:42:50;10.02;;;1.75;;
58553;SDS011;48119;53.218;6.576;2024-01-15T07:45:16;4.43;;;1.95;;
58553;SDS011;48119;53.218;6.576;2024-01-15T07:47:42;7.93;;;2.10;;
58553;SDS011;48119;53.218;6.576;2024-01-15T07:50:08;9.57;;;2.22;;
58553;SDS011;48119;53.218;6.576;2024-01-15T07:52:33;7.15;;;2.33;;
58553;SDS011;48119;53.218;6.576;2024-01-15T07:54:59;10.52;;;2.35;;
58553;SDS011;48119;53.218;6.576;2024-01-15T07:57:25;14.23;;;3.00;;
58553;SDS011;48119;53.218;6.576;2024-01-15T07:59:51;8.25;;;2.30;;
58553;SDS011;48119;53.218;6.576;2024-01-15T08:02:17;8.52;;;2.60;;
58553;SDS011;48119;53.218;6.576;2024-01-15T08:04:42;11.63;;;2.78;;
58553;SDS011;48119;53.218;6.576;2024-01-15T08:07:09;7.97;;;2.67;;
58553;SDS011;48119;53.218;6.576;2024-01-15T08:09:35;7.60;;;2.50;;
58553;SDS011;48119;53.218;6.576;2024-01-15T08:12:00;10.38;;;2.60;;
58553;SDS011;48119;53.218;6.576;2024-01-15T08:14:26;8.30;;;2.60;;
58553;SDS011;48119;53.218;6.576;2024-01-15T08:16:52;8.75;;;2.78;;
58553;SDS011;48119;53.218;6.576;2024-01-15T08:19:18;9.73;;;2.35;;
58553;SDS011;48119;53.218;6.576;2024-01-15T08:21:45;5.80;;;1.80;;
58553;SDS011;48119;53.218;6.576;2024-01-15T08:24:10;10.07;;;2.53;;
58553;SDS011;48119;53.218;6.576;2024-01-15T08:26:36;8.65;;;2.28;;
58553;SDS011;48119;53.218;6.576;2024-01-15T08:29:02;9.77;;;2.75;;
58553;SDS011;48119;53.218;6.576;2024-01-15T08:31:28;9.80;;;2.22;;
58553;SDS011;48119;53.218;6.576;2024-01-15T08:33:54;10.27;;;2.95;;
58553;SDS011;48119;53.218;6.576;2024-01-15T08:36:21;5.10;;;1.48;;
58553;SDS011;48119;53.218;6.576;2024-01-15T08:38:47;9.50;;;2.25;;
58553;SDS011;48119;53.218;6.576;2024-01-15T08:41:13;7.35;;;2.47;;
58553;SDS011;48119;53.218;6.576;2024-01-15T08:43:38;8.70;;;1.80;;
58553;SDS011;48119;53.218;6.576;2024-01-15T08:46:04;4.53;;;1.90;;
58553;SDS011;48119;53.218;6.576;2024-01-15T08:48:30;8.65;;;2.00;;
58553;SDS011;48119;53.218;6.576;2024-01-15T08:50:56;8.90;;;1.92;;
58553;SDS011;48119;53.218;6.576;2024-01-15T08:53:22;8.55;;;1.83;;
58553;SDS011;48119;53.218;6.576;2024-01-15T08:55:48;5.32;;;1.60;;
58553;SDS011;48119;53.218;6.576;2024-01-15T08:58:14;6.72;;;1.52;;
58553;SDS011;48119;53.218;6.576;2024-01-15T09:00:40;7.82;;;1.45;;
58553;SDS011;48119;53.218;6.576;2024-01-15T09:03:06;7.47;;;1.70;;
58553;SDS011;48119;53.218;6.576;2024-01-15T09:05:33;10.40;;;1.80;;
58553;SDS011;48119;53.218;6.576;2024-01-15T09:07:59;8.10;;;2.20;;
58553;SDS011;48119;53.218;6.576;2024-01-15T09:10:25;3.67;;;1.88;;
58553;SDS011;48119;53.218;6.576;2024-01-15T09:12:51;10.55;;;2.05;;
58553;SDS011;48119;53.218;6.576;2024-01-15T09:15:17;4.18;;;1.42;;
58553;SDS011;48119;53.218;6.576;2024-01-15T09:17:44;5.80;;;1.80;;
58553;SDS011;48119;53.218;6.576;2024-01-15T09:20:11;8.80;;;2.10;;
58553;SDS011;48119;53.218;6.576;2024-01-15T09:22:40;8.68;;;1.73;;
58553;SDS011;48119;53.218;6.576;2024-01-15T09:25:07;5.35;;;1.50;;
58553;SDS011;48119;53.218;6.576;2024-01-15T09:27:35;3.38;;;1.40;;
58553;SDS011;48119;53.218;6.576;2024-01-15T09:30:01;3.72;;;1.55;;
58553;SDS011;48119;53.218;6.576;2024-01-15T09:32:27;8.65;;;1.95;;
58553;SDS011;48119;53.218;6.576;2024-01-15T09:34:53;6.15;;;1.67;;
58553;SDS011;48119;53.218;6.576;2024-01-15T09:37:19;8.88;;;1.73;;
58553;SDS011;48119;53.218;6.576;2024-01-15T09:39:45;5.15;;;2.42;;
58553;SDS011;48119;53.218;6.576;2024-01-15T09:42:11;13.82;;;2.45;;
58553;SDS011;48119;53.218;6.576;2024-01-15T09:44:37;16.05;;;3.50;;
58553;SDS011;48119;53.218;6.576;2024-01-15T09:47:03;9.45;;;3.20;;
58553;SDS011;48119;53.218;6.576;2024-01-15T09:49:30;11.05;;;2.55;;
58553;SDS011;48119;53.218;6.576;2024-01-15T09:51:57;6.43;;;2.17;;
58553;SDS011;48119;53.218;6.576;2024-01-15T09:54:23;11.13;;;2.20;;
58553;SDS011;48119;53.218;6.576;2024-01-15T09:56:50;7.78;;;2.60;;
58553;SDS011;48119;53.218;6.576;2024-01-15T09:59:16;5.60;;;1.90;;
58553;SDS011;48119;53.218;6.576;2024-01-15T10:01:43;8.80;;;2.13;;
58553;SDS011;48119;53.218;6.576;2024-01-15T10:04:10;8.15;;;2.20;;
58553;SDS011;48119;53.218;6.576;2024-01-15T10:06:40;10.70;;;2.97;;
58553;SDS011;48119;53.218;6.576;2024-01-15T10:09:11;16.85;;;4.47;;
58553;SDS011;48119;53.218;6.576;2024-01-15T10:11:40;5.43;;;2.00;;
58553;SDS011;48119;53.218;6.576;2024-01-15T10:14:08;7.57;;;2.55;;
58553;SDS011;48119;53.218;6.576;2024-01-15T10:16:38;5.88;;;1.90;;
58553;SDS011;48119;53.218;6.576;2024-01-15T10:19:09;14.13;;;2.17;;
58553;SDS011;48119;53.218;6.576;2024-01-15T10:21:37;14.05;;;2.13;;
58553;SDS011;48119;53.218;6.576;2024-01-15T10:24:04;6.50;;;1.70;;
58553;SDS011;48119;53.218;6.576;2024-01-15T10:26:30;7.07;;;1.60;;
58553;SDS011;48119;53.218;6.576;2024-01-15T10:29:00;8.55;;;1.50;;
58553;SDS011;48119;53.218;6.576;2024-01-15T10:31:26;10.02;;;2.58;;
58553;SDS011;48119;53.218;6.576;2024-01-15T10:33:53;15.65;;;2.83;;
58553;SDS011;48119;53.218;6.576;2024-01-15T10:36:19;4.95;;;2.10;;
58553;SDS011;48119;53.218;6.576;2024-01-15T10:38:46;7.47;;;2.17;;
58553;SDS011;48119;53.218;6.576;2024-01-15T10:41:12;6.82;;;2.17;;
58553;SDS011;48119;53.218;6.576;2024-01-15T10:43:38;8.10;;;2.50;;
58553;SDS011;48119;53.218;6.576;2024-01-15T10:46:06;12.77;;;2.97;;
58553;SDS011;48119;53.218;6.576;2024-01-15T10:48:32;10.48;;;3.95;;
58553;SDS011;48119;53.218;6.576;2024-01-15T10:51:01;9.90;;;2.67;;
58553;SDS011;48119;53.218;6.576;2024-01-15T10:53:35;6.88;;;2.53;;
58553;SDS011;48119;53.218;6.576;2024-01-15T10:56:05;8.18;;;1.48;;
58553;SDS011;48119;53.218;6.576;2024-01-15T10:58:32;5.78;;;2.10;;
58553;SDS011;48119;53.218;6.576;2024-01-15T11:00:59;3.67;;;1.30;;
58553;SDS011;48119;53.218;6.576;2024-01-15T11:03:26;2.58;;;0.50;;
58553;SDS011;48119;53.218;6.576;2024-01-15T11:05:53;2.25;;;0.70;;
58553;SDS011;48119;53.218;6.576;2024-01-15T11:08:19;1.35;;;0.45;;
58553;SDS011;48119;53.218;6.576;2024-01-15T11:10:47;2.70;;;0.68;;
58553;SDS011;48119;53.218;6.576;2024-01-15T11:16:06;2.92;;;0.85;;
58553;SDS011;48119;53.218;6.576;2024-01-15T11:18:37;7.53;;;1.77;;
58553;SDS011;48119;53.218;6.576;2024-01-15T11:29:06;2.67;;;1.17;;
58553;SDS011;48119;53.218;6.576;2024-01-15T11:34:06;3.30;;;0.80;;
58553;SDS011;48119;53.218;6.576;2024-01-15T11:42:00;1.65;;;0.68;;
58553;SDS011;48119;53.218;6.576;2024-01-15T11:44:30;1.83;;;0.60;;
58553;SDS011;48119;53.218;6.576;2024-01-15T11:47:03;2.45;;;0.68;;
58553;SDS011;48119;53.218;6.576;2024-01-15T11:54:55;5.37;;;0.70;;
58553;SDS011;48119;53.218;6.576;2024-01-15T11:57:48;3.53;;;0.70;;
58553;SDS011;48119;53.218;6.576;2024-01-15T12:00:16;4.13;;;0.98;;
58553;SDS011;48119;53.218;6.576;2024-01-15T12:02:43;4.93;;;0.70;;
58553;SDS011;48119;53.218;6.576;2024-01-15T12:05:11;4.63;;;1.35;;
58553;SDS011;48119;53.218;6.576;2024-01-15T12:07:39;3.88;;;0.68;;
58553;SDS011;48119;53.218;6.576;2024-01-15T12:10:11;3.13;;;0.40;;
58553;SDS011;48119;53.218;6.576;2024-01-15T12:15:31;3.88;;;0.65;;
58553;SDS011;48119;53.218;6.576;2024-01-15T12:17:59;5.82;;;1.05;;
58553;SDS011;48119;53.218;6.576;2024-01-15T12:20:28;4.22;;;1.02;;
58553;SDS011;48119;53.218;6.576;2024-01-15T12:22:55;2.60;;;0.85;;
58553;SDS011;48119;53.218;6.576;2024-01-15T12:25:24;6.53;;;1.15;;
58553;SDS011;48119;53.218;6.576;2024-01-15T12:27:52;5.13;;;1.02;;
58553;SDS011;48119;53.218;6.576;2024-01-15T12:30:18;12.70;;;1.45;;
58553;SDS011;48119;53.218;6.576;2024-01-15T12:32:44;6.18;;;1.65;;
58553;SDS011;48119;53.218;6.576;2024-01-15T12:35:12;10.10;;;1.55;;
58553;SDS011;48119;53.218;6.576;2024-01-15T12:37:42;11.48;;;1.50;;
58553;SDS011;48119;53.218;6.576;2024-01-15T12:40:09;6.85;;;1.30;;
58553;SDS011;48119;53.218;6.576;2024-01-15T12:42:36;4.97;;;1.52;;
58553;SDS011;48119;53.218;6.576;2024-01-15T12:45:02;5.35;;;1.35;;
58553;SDS011;48119;53.218;6.576;2024-01-15T12:47:30;9.18;;;1.52;;
58553;SDS011;48119;53.218;6.576;2024-01-15T12:49:57;6.45;;;1.23;;
58553;SDS011;48119;53.218;6.576;2024-01-15T12:52:26;4.72;;;1.55;;
58553;SDS011;48119;53.218;6.576;2024-01-15T12:54:55;6.70;;;1.95;;
58553;SDS011;48119;53.218;6.576;2024-01-15T12:57:21;4.35;;;1.42;;
58553;SDS011;48119;53.218;6.576;2024-01-15T12:59:48;8.77;;;1.83;;
58553;SDS011;48119;53.218;6.576;2024-01-15T13:02:15;8.85;;;2.00;;
58553;SDS011;48119;53.218;6.576;2024-01-15T13:04:41;6.88;;;1.77;;
58553;SDS011;48119;53.218;6.576;2024-01-15T13:07:07;4.15;;;1.83;;
58553;SDS011;48119;53.218;6.576;2024-01-15T13:09:34;12.40;;;2.72;;
58553;SDS011;48119;53.218;6.576;2024-01-15T13:12:01;9.93;;;2.20;;
58553;SDS011;48119;53.218;6.576;2024-01-15T13:14:27;12.80;;;2.13;;
58553;SDS011;48119;53.218;6.576;2024-01-15T13:16:54;13.27;;;2.40;;
58553;SDS011;48119;53.218;6.576;2024-01-15T13:19:21;9.43;;;2.83;;
58553;SDS011;48119;53.218;6.576;2024-01-15T13:21:47;10.60;;;2.53;;
58553;SDS011;48119;53.218;6.576;2024-01-15T13:24:15;10.48;;;2.42;;
58553;SDS011;48119;53.218;6.576;2024-01-15T13:26:40;6.88;;;1.85;;
58553;SDS011;48119;53.218;6.576;2024-01-15T13:29:06;9.63;;;2.47;;
58553;SDS011;48119;53.218;6.576;2024-01-15T13:31:32;9.93;;;3.55;;
58553;SDS011;48119;53.218;6.576;2024-01-15T13:33:59;12.25;;;2.50;;
58553;SDS011;48119;53.218;6.576;2024-01-15T13:36:25;7.03;;;2.47;;
58553;SDS011;48119;53.218;6.576;2024-01-15T13:38:52;13.23;;;2.90;;
58553;SDS011;48119;53.218;6.576;2024-01-15T13:41:19;6.47;;;2.30;;
58553;SDS011;48119;53.218;6.576;2024-01-15T13:43:50;9.65;;;2.33;;
58553;SDS011;48119;53.218;6.576;2024-01-15T13:46:23;8.77;;;2.60;;
58553;SDS011;48119;53.218;6.576;2024-01-15T13:48:49;10.10;;;2.45;;
58553;SDS011;48119;53.218;6.576;2024-01-15T13:51:15;6.45;;;1.67;;
58553;SDS011;48119;53.218;6.576;2024-01-15T13:53:41;8.88;;;1.33;;
58553;SDS011;48119;53.218;6.576;2024-01-15T13:56:07;4.55;;;1.30;;
58553;SDS011;48119;53.218;6.576;2024-01-15T13:58:35;4.82;;;1.50;;
58553;SDS011;48119;53.218;6.576;2024-01-15T14:01:02;4.30;;;0.93;;
58553;SDS011;48119;53.218;6.576;2024-01-15T14:03:31;5.20;;;1.20;;
58553;SDS011;48119;53.218;6.576;2024-01-15T14:05:57;8.05;;;1.45;;
58553;SDS011;48119;53.218;6.576;2024-01-15T14:08:23;8.02;;;2.13;;
58553;SDS011;48119;53.218;6.576;2024-01-15T14:10:50;6.65;;;1.45;;
58553;SDS011;48119;53.218;6.576;2024-01-15T14:13:16;7.45;;;2.28;;
58553;SDS011;48119;53.218;6.576;2024-01-15T14:15:42;6.10;;;1.98;;
58553;SDS011;48119;53.218;6.576;2024-01-15T14:18:08;7.13;;;2.10;;
58553;SDS011;48119;53.218;6.576;2024-01-15T14:20:34;2.85;;;1.35;;
58553;SDS011;48119;53.218;6.576;2024-01-15T14:23:00;6.18;;;1.88;;
58553;SDS011;48119;53.218;6.576;2024-01-15T14:25:26;11.55;;;1.70;;
58553;SDS011;48119;53.218;6.576;2024-01-15T14:27:51;6.40;;;1.48;;
58553;SDS011;48119;53.218;6.576;2024-01-15T14:30:17;9.77;;;1.42;;
58553;SDS011;48119;53.218;6.576;2024-01-15T14:32:43;5.82;;;1.17;;
58553;SDS011;48119;53.218;6.576;2024-01-15T14:35:09;5.43;;;1.70;;
58553;SDS011;48119;53.218;6.576;2024-01-15T14:37:38;6.65;;;1.75;;
58553;SDS011;48119;53.218;6.576;2024-01-15T14:40:08;6.68;;;1.67;;
58553;SDS011;48119;53.218;6.576;2024-01-15T14:42:35;5.28;;;1.40;;
58553;SDS011;48119;53.218;6.576;2024-01-15T14:45:02;7.07;;;1.70;;
58553;SDS011;48119;53.218;6.576;2024-01-15T14:47:29;10.45;;;3.45;;
58553;SDS011;48119;53.218;6.576;2024-01-15T14:49:56;4.57;;;1.45;;
58553;SDS011;48119;53.218;6.576;2024-01-15T14:52:22;9.35;;;2.30;;
58553;SDS011;48119;53.218;6.576;2024-01-15T14:54:48;7.40;;;1.58;;
58553;SDS011;48119;53.218;6.576;2024-01-15T14:57:14;5.40;;;1.70;;
58553;SDS011;48119;53.218;6.576;2024-01-15T14:59:40;8.50;;;2.05;;
58553;SDS011;48119;53.218;6.576;2024-01-15T15:02:06;7.10;;;2.67;;
58553;SDS011;48119;53.218;6.576;2024-01-15T15:04:32;9.68;;;1.63;;
58553;SDS011;48119;53.218;6.576;2024-01-15T15:06:58;6.70;;;1.80;;
58553;SDS011;48119;53.218;6.576;2024-01-15T15:09:24;8.30;;;1.98;;
58553;SDS011;48119;53.218;6.576;2024-01-15T15:11:50;10.43;;;2.28;;
58553;SDS011;48119;53.218;6.576;2024-01-15T15:14:17;8.43;;;2.33;;
58553;SDS011;48119;53.218;6.576;2024-01-15T15:16:43;5.75;;;2.53;;
58553;SDS011;48119;53.218;6.576;2024-01-15T15:19:11;9.02;;;2.42;;
58553;SDS011;48119;53.218;6.576;2024-01-15T15:21:37;7.75;;;1.70;;
58553;SDS011;48119;53.218;6.576;2024-01-15T15:24:03;5.28;;;1.63;;
58553;SDS011;48119;53.218;6.576;2024-01-15T15:26:29;6.78;;;1.33;;
58553;SDS011;48119;53.218;6.576;2024-01-15T15:28:55;5.63;;;1.42;;
58553;SDS011;48119;53.218;6.576;2024-01-15T15:31:21;8.10;;;2.17;;
58553;SDS011;48119;53.218;6.576;2024-01-15T15:33:47;6.88;;;2.58;;
58553;SDS011;48119;53.218;6.576;2024-01-15T15:36:13;4.75;;;1.30;;